createdAt,value
2017-07-18T00:01:24.856Z,5.60
2017-07-18T00:03:52.417Z,5.30
2017-07-18T00:06:20.044Z,5.33
2017-07-18T00:08:48.343Z,5.83
2017-07-18T00:11:15.873Z,5.63
2017-07-18T00:13:44.229Z,5.30
2017-07-18T00:16:12.582Z,5.97
2017-07-18T00:18:40.126Z,5.97
2017-07-18T00:21:07.697Z,5.67
2017-07-18T00:23:35.281Z,6.13
2017-07-18T00:26:02.915Z,6.17
2017-07-18T00:28:30.496Z,6.17
2017-07-18T00:30:58.046Z,5.53
2017-07-18T00:33:25.595Z,5.50
2017-07-18T00:35:53.170Z,5.80
2017-07-18T00:38:20.779Z,5.27
2017-07-18T00:40:48.384Z,5.33
2017-07-18T00:43:15.985Z,5.27
2017-07-18T00:45:43.624Z,6.17
2017-07-18T00:48:11.988Z,6.33
2017-07-18T00:50:39.776Z,6.17
2017-07-18T00:53:08.089Z,6.20
2017-07-18T00:55:35.628Z,6.27
2017-07-18T00:58:03.217Z,6.03
2017-07-18T01:00:30.838Z,5.80
2017-07-18T01:02:58.394Z,5.70
2017-07-18T01:05:25.940Z,5.73
2017-07-18T01:07:54.288Z,5.40
2017-07-18T01:10:21.889Z,5.70
2017-07-18T01:12:49.583Z,5.53
2017-07-18T01:15:17.270Z,6.20
2017-07-18T01:17:44.814Z,5.90
2017-07-18T01:20:12.490Z,5.97
2017-07-18T01:22:40.188Z,5.90
2017-07-18T01:25:07.786Z,6.10
2017-07-18T01:27:35.340Z,6.17
2017-07-18T01:30:02.891Z,5.57
2017-07-18T01:32:30.479Z,5.50
2017-07-18T01:34:58.025Z,6.37
2017-07-18T01:37:25.573Z,6.23
2017-07-18T01:39:53.147Z,6.23
2017-07-18T01:42:20.696Z,5.60
2017-07-18T01:44:48.236Z,6.30
2017-07-18T01:47:15.809Z,6.40
2017-07-18T01:49:43.441Z,6.60
2017-07-18T01:52:11.031Z,6.10
2017-07-18T01:54:38.619Z,6.60
2017-07-18T01:57:06.931Z,6.87
2017-07-18T01:59:34.526Z,6.47
2017-07-18T02:02:02.068Z,6.77
2017-07-18T02:04:29.704Z,6.80
2017-07-18T02:06:57.261Z,7.10
2017-07-18T02:09:24.868Z,6.50
2017-07-18T02:11:52.521Z,6.37
2017-07-18T02:14:20.066Z,6.93
2017-07-18T02:16:47.617Z,6.83
2017-07-18T02:19:15.380Z,6.63
2017-07-18T02:21:42.912Z,7.63
2017-07-18T02:24:10.520Z,7.53
2017-07-18T02:26:38.056Z,6.97
2017-07-18T02:29:05.787Z,7.03
2017-07-18T02:31:33.360Z,7.10
2017-07-18T02:34:00.900Z,7.00
2017-07-18T02:36:28.614Z,7.27
2017-07-18T02:38:56.153Z,7.43
2017-07-18T02:41:23.693Z,7.20
2017-07-18T02:43:51.285Z,7.00
2017-07-18T02:46:18.982Z,7.77
2017-07-18T02:48:47.394Z,8.40
2017-07-18T02:51:14.968Z,7.67
2017-07-18T02:53:42.522Z,6.70
2017-07-18T02:56:10.094Z,7.33
2017-07-18T02:58:37.642Z,8.20
2017-07-18T03:01:05.198Z,8.40
2017-07-18T03:03:32.826Z,7.80
2017-07-18T03:06:00.375Z,7.13
2017-07-18T03:08:28.706Z,7.87
2017-07-18T03:10:56.278Z,7.37
2017-07-18T03:13:24.006Z,8.00
2017-07-18T03:15:51.579Z,8.13
2017-07-18T03:18:19.133Z,7.97
2017-07-18T03:20:46.885Z,7.50
2017-07-18T03:23:14.458Z,8.00
2017-07-18T03:25:42.023Z,8.13
2017-07-18T03:28:09.581Z,8.90
2017-07-18T03:30:37.153Z,7.80
2017-07-18T03:33:04.732Z,6.90
2017-07-18T03:35:33.077Z,7.57
2017-07-18T03:38:00.626Z,8.20
2017-07-18T03:40:28.182Z,7.33
2017-07-18T03:42:55.763Z,8.17
2017-07-18T03:45:23.312Z,7.70
2017-07-18T03:47:50.862Z,8.00
2017-07-18T03:50:18.530Z,8.47
2017-07-18T03:52:46.108Z,7.73
2017-07-18T03:55:13.652Z,9.27
2017-07-18T03:57:41.240Z,8.80
2017-07-18T04:00:09.624Z,8.17
2017-07-18T04:02:37.935Z,8.57
2017-07-18T04:05:05.524Z,8.67
2017-07-18T04:07:33.064Z,8.43
2017-07-18T04:10:00.662Z,8.80
2017-07-18T04:12:29.012Z,8.97
2017-07-18T04:14:56.546Z,8.43
2017-07-18T04:17:24.244Z,9.90
2017-07-18T04:19:51.871Z,8.33
2017-07-18T04:22:19.419Z,8.57
2017-07-18T04:24:47.107Z,9.40
2017-07-18T04:27:14.650Z,9.03
2017-07-18T04:29:42.226Z,8.80
2017-07-18T04:32:09.905Z,8.87
2017-07-18T04:34:38.236Z,8.50
2017-07-18T04:37:05.853Z,9.00
2017-07-18T04:39:34.230Z,8.33
2017-07-18T04:42:02.590Z,8.47
2017-07-18T04:44:30.133Z,8.90
2017-07-18T04:46:57.714Z,9.30
2017-07-18T04:49:25.366Z,9.33
2017-07-18T04:51:52.926Z,10.30
2017-07-18T04:54:20.464Z,9.00
2017-07-18T04:56:48.018Z,10.30
2017-07-18T04:59:15.566Z,9.80
2017-07-18T05:01:43.152Z,9.33
2017-07-18T05:04:10.706Z,9.00
2017-07-18T05:06:38.258Z,10.10
2017-07-18T05:09:05.838Z,8.90
2017-07-18T05:11:34.217Z,10.33
2017-07-18T05:14:02.568Z,9.90
2017-07-18T05:16:30.213Z,11.63
2017-07-18T05:18:57.752Z,10.70
2017-07-18T05:21:25.444Z,9.70
2017-07-18T05:23:53.121Z,10.37
2017-07-18T05:26:20.738Z,9.80
2017-07-18T05:28:48.290Z,10.13
2017-07-18T05:31:15.878Z,10.10
2017-07-18T05:33:43.603Z,11.60
2017-07-18T05:36:11.154Z,12.20
2017-07-18T05:38:38.738Z,10.73
2017-07-18T05:41:06.433Z,11.23
2017-07-18T05:43:33.993Z,10.10
2017-07-18T05:46:01.570Z,10.57
2017-07-18T05:48:29.890Z,10.57
2017-07-18T05:50:57.618Z,10.90
2017-07-18T05:53:25.936Z,9.60
2017-07-18T05:55:53.481Z,9.87
2017-07-18T05:58:21.058Z,10.17
2017-07-18T06:00:48.759Z,10.50
2017-07-18T06:03:17.089Z,10.03
2017-07-18T06:05:44.669Z,10.13
2017-07-18T06:08:12.274Z,10.10
2017-07-18T06:10:39.895Z,10.90
2017-07-18T06:13:07.439Z,9.03
2017-07-18T06:15:35.027Z,10.47
2017-07-18T06:18:03.333Z,9.80
2017-07-18T06:20:30.890Z,10.17
2017-07-18T06:22:58.482Z,10.67
2017-07-18T06:25:26.031Z,10.67
2017-07-18T06:27:53.617Z,12.10
2017-07-18T06:30:21.211Z,11.63
2017-07-18T06:32:48.751Z,11.47
2017-07-18T06:35:17.125Z,12.57
2017-07-18T06:37:45.467Z,11.60
2017-07-18T06:40:13.020Z,11.50
2017-07-18T06:42:40.611Z,10.70
2017-07-18T06:45:08.159Z,12.17
2017-07-18T06:47:35.709Z,12.70
2017-07-18T06:50:03.296Z,13.07
2017-07-18T06:52:31.615Z,13.37
2017-07-18T06:54:59.207Z,14.30
2017-07-18T06:57:26.765Z,12.37
2017-07-18T06:59:54.429Z,12.37
2017-07-18T07:02:22.088Z,13.30
2017-07-18T07:04:49.677Z,13.17
2017-07-18T07:07:18.026Z,12.10
2017-07-18T07:09:45.625Z,13.50
2017-07-18T07:12:13.207Z,14.00
2017-07-18T07:14:40.854Z,12.80
2017-07-18T07:17:08.469Z,12.40
2017-07-18T07:19:36.802Z,10.40
2017-07-18T07:22:04.373Z,10.50
2017-07-18T07:24:31.961Z,10.03
2017-07-18T07:26:59.583Z,9.13
2017-07-18T07:29:27.124Z,9.40
2017-07-18T07:31:54.731Z,9.70
2017-07-18T07:34:22.295Z,8.83
2017-07-18T07:36:49.896Z,6.83
2017-07-18T07:39:17.571Z,7.10
2017-07-18T07:41:45.128Z,7.30
2017-07-18T07:44:12.723Z,7.83
2017-07-18T07:46:40.261Z,6.97
2017-07-18T07:49:07.813Z,6.87
2017-07-18T07:51:35.413Z,6.50
2017-07-18T07:54:02.964Z,7.13
2017-07-18T07:56:30.506Z,6.20
2017-07-18T07:58:58.098Z,5.90
2017-07-18T08:01:25.662Z,6.30
2017-07-18T08:03:54.001Z,6.13
2017-07-18T08:06:21.630Z,7.20
2017-07-18T08:08:49.179Z,6.80
2017-07-18T08:11:16.689Z,5.77
2017-07-18T08:13:44.266Z,6.30
2017-07-18T08:16:12.594Z,5.17
2017-07-18T08:18:40.261Z,5.30
2017-07-18T08:21:07.814Z,4.90
2017-07-18T08:23:35.359Z,5.60
2017-07-18T08:26:02.981Z,4.53
2017-07-18T08:28:30.538Z,4.73
2017-07-18T08:30:58.836Z,4.47
2017-07-18T08:33:26.441Z,4.27
2017-07-18T08:35:54.007Z,4.50
2017-07-18T08:38:21.556Z,4.10
2017-07-18T08:40:49.130Z,4.50
2017-07-18T08:43:16.721Z,3.53
2017-07-18T08:45:44.269Z,3.60
2017-07-18T08:48:11.806Z,4.60
2017-07-18T08:50:40.175Z,3.47
2017-07-18T08:53:07.724Z,3.20
2017-07-18T08:55:35.278Z,3.60
2017-07-18T08:58:02.869Z,4.00
2017-07-18T09:00:31.166Z,3.83
2017-07-18T09:02:58.701Z,3.47
2017-07-18T09:05:27.043Z,3.57
2017-07-18T09:07:54.591Z,4.10
2017-07-18T09:10:22.240Z,4.10
2017-07-18T09:12:49.795Z,3.63
2017-07-18T09:15:17.336Z,4.10
2017-07-18T09:17:44.942Z,3.70
2017-07-18T09:20:12.499Z,4.03
2017-07-18T09:22:40.065Z,3.33
2017-07-18T09:25:07.676Z,3.33
2017-07-18T09:27:35.285Z,3.33
2017-07-18T09:30:02.832Z,4.50
2017-07-18T09:32:30.369Z,4.00
2017-07-18T09:34:57.961Z,3.67
2017-07-18T09:37:25.542Z,3.27
2017-07-18T09:39:53.863Z,3.53
2017-07-18T09:42:21.406Z,4.33
2017-07-18T09:44:48.987Z,4.00
2017-07-18T09:47:16.702Z,4.10
2017-07-18T09:49:44.242Z,4.03
2017-07-18T09:52:12.598Z,3.53
2017-07-18T09:54:40.149Z,4.50
2017-07-18T09:57:07.698Z,3.80
2017-07-18T09:59:35.324Z,3.50
2017-07-18T10:02:02.857Z,3.43
2017-07-18T10:04:31.201Z,4.30
2017-07-18T10:06:58.770Z,3.40
2017-07-18T10:09:26.341Z,4.10
2017-07-18T10:11:54.695Z,4.23
2017-07-18T10:14:22.235Z,4.40
2017-07-18T10:16:49.779Z,3.90
2017-07-18T10:19:17.386Z,3.87
2017-07-18T10:21:44.936Z,3.73
2017-07-18T10:24:12.541Z,4.00
2017-07-18T10:26:40.114Z,3.60
2017-07-18T10:29:07.695Z,3.87
2017-07-18T10:31:35.240Z,4.10
2017-07-18T10:34:02.787Z,4.00
2017-07-18T10:36:30.383Z,3.17
2017-07-18T10:38:57.935Z,3.53
2017-07-18T10:41:25.482Z,3.10
2017-07-18T10:43:53.061Z,3.30
2017-07-18T10:46:20.647Z,2.70
2017-07-18T10:48:49.051Z,2.97
2017-07-18T10:51:16.614Z,2.83
2017-07-18T10:53:44.257Z,3.13
2017-07-18T10:56:11.836Z,3.07
2017-07-18T10:58:39.386Z,3.30
2017-07-18T11:01:06.954Z,2.70
2017-07-18T11:03:34.545Z,2.57
2017-07-18T11:06:02.118Z,3.40
2017-07-18T11:08:30.463Z,2.60
2017-07-18T11:10:58.014Z,2.83
2017-07-18T11:13:25.561Z,2.97
2017-07-18T11:15:53.242Z,3.20
2017-07-18T11:18:20.802Z,2.53
2017-07-18T11:20:48.391Z,2.97
2017-07-18T11:23:16.707Z,2.80
2017-07-18T11:25:44.290Z,3.00
2017-07-18T11:28:11.958Z,2.83
2017-07-18T11:30:39.506Z,3.00
2017-07-18T11:33:07.090Z,2.97
2017-07-18T11:35:34.637Z,2.80
2017-07-18T11:38:02.227Z,2.60
2017-07-18T11:40:30.538Z,2.70
2017-07-18T11:42:58.097Z,2.93
2017-07-18T11:45:25.684Z,2.63
2017-07-18T11:47:53.269Z,2.40
2017-07-18T11:50:21.594Z,2.83
2017-07-18T11:52:49.126Z,2.80
2017-07-18T11:55:16.749Z,2.90
2017-07-18T11:57:44.293Z,2.90
2017-07-18T12:00:11.834Z,2.63
2017-07-18T12:02:39.497Z,3.03
2017-07-18T12:05:07.063Z,2.97
2017-07-18T12:07:34.643Z,3.33
2017-07-18T12:10:02.189Z,2.50
2017-07-18T12:12:29.731Z,2.80
2017-07-18T12:14:57.304Z,2.83
2017-07-18T12:17:24.854Z,2.67
2017-07-18T12:19:52.394Z,2.70
2017-07-18T12:22:20.041Z,2.77
2017-07-18T12:24:47.611Z,2.60
2017-07-18T12:27:15.311Z,3.37
2017-07-18T12:29:42.970Z,2.90
2017-07-18T12:32:10.505Z,3.00
2017-07-18T12:34:38.091Z,2.57
2017-07-18T12:37:05.631Z,2.73
2017-07-18T12:39:33.182Z,2.80
2017-07-18T12:42:00.757Z,3.20
2017-07-18T12:44:28.316Z,2.37
2017-07-18T12:46:55.861Z,3.10
2017-07-18T12:49:23.458Z,3.53
2017-07-18T12:51:51.779Z,2.70
2017-07-18T12:54:19.485Z,2.63
2017-07-18T12:56:47.832Z,2.73
2017-07-18T12:59:15.373Z,3.20
2017-07-18T13:01:42.963Z,2.97
2017-07-18T13:04:10.513Z,3.40
2017-07-18T13:06:38.066Z,3.43
2017-07-18T13:09:05.667Z,3.03
2017-07-18T13:11:33.979Z,3.10
2017-07-18T13:14:01.528Z,2.70
2017-07-18T13:16:29.123Z,3.20
2017-07-18T13:18:56.675Z,2.87
2017-07-18T13:21:24.298Z,3.57
2017-07-18T13:23:51.878Z,3.30
2017-07-18T13:26:19.459Z,2.97
2017-07-18T13:28:47.009Z,3.23
2017-07-18T13:31:14.557Z,2.90
2017-07-18T13:33:42.145Z,3.07
2017-07-18T13:36:11.221Z,2.80
2017-07-18T13:38:38.783Z,3.17
2017-07-18T13:41:06.334Z,3.10
2017-07-18T13:43:33.904Z,2.87
2017-07-18T13:46:01.461Z,3.03
2017-07-18T13:48:29.028Z,3.10
2017-07-18T13:50:56.594Z,3.20
2017-07-18T13:53:24.964Z,3.03
2017-07-18T13:55:52.501Z,2.53
2017-07-18T13:58:20.051Z,3.57
2017-07-18T14:00:47.612Z,2.80
2017-07-18T14:03:15.193Z,3.37
2017-07-18T14:05:42.779Z,3.30
2017-07-18T14:08:11.094Z,3.60
2017-07-18T14:10:38.638Z,3.10
2017-07-18T14:13:06.243Z,3.73
2017-07-18T14:15:33.783Z,2.90
2017-07-18T14:18:01.385Z,3.03
2017-07-18T14:20:29.706Z,3.23
2017-07-18T14:22:57.317Z,3.60
2017-07-18T14:25:25.668Z,3.20
2017-07-18T14:27:53.236Z,2.87
2017-07-18T14:30:21.556Z,3.93
2017-07-18T14:32:49.150Z,3.40
2017-07-18T14:35:16.692Z,3.50
2017-07-18T14:37:44.317Z,3.37
2017-07-18T14:40:12.047Z,3.00
2017-07-18T14:42:39.622Z,3.07
2017-07-18T14:45:07.930Z,2.90
2017-07-18T14:47:35.510Z,3.27
2017-07-18T14:50:03.047Z,3.00
2017-07-18T14:52:30.625Z,2.77
2017-07-18T14:54:58.176Z,3.00
2017-07-18T14:57:25.718Z,3.10
2017-07-18T14:59:53.280Z,3.20
2017-07-18T15:02:20.958Z,2.90
2017-07-18T15:04:48.534Z,3.50
2017-07-18T15:07:16.073Z,2.70
2017-07-18T15:09:43.619Z,3.37
2017-07-18T15:12:11.218Z,3.10
2017-07-18T15:14:38.761Z,3.20
2017-07-18T15:17:06.317Z,3.10
2017-07-18T15:19:33.902Z,2.90
2017-07-18T15:22:02.229Z,3.30
2017-07-18T15:24:29.800Z,3.33
2017-07-18T15:26:57.372Z,3.80
2017-07-18T15:29:24.916Z,2.80
2017-07-18T15:31:52.538Z,3.33
2017-07-18T15:34:20.092Z,2.90
2017-07-18T15:36:47.640Z,3.20
2017-07-18T15:39:15.991Z,3.03
2017-07-18T15:41:43.539Z,3.03
2017-07-18T15:44:11.089Z,2.93
2017-07-18T15:46:38.696Z,3.53
2017-07-18T15:49:07.001Z,3.70
2017-07-18T15:51:34.598Z,2.80
2017-07-18T15:54:02.145Z,2.70
2017-07-18T15:56:29.685Z,2.50
2017-07-18T15:58:57.271Z,3.20
2017-07-18T16:01:24.815Z,2.97
2017-07-18T16:03:52.401Z,2.90
2017-07-18T16:06:19.960Z,2.50
2017-07-18T16:08:47.668Z,2.73
2017-07-18T16:11:15.305Z,3.00
2017-07-18T16:13:42.859Z,2.50
2017-07-18T16:16:11.166Z,3.13
2017-07-18T16:18:38.736Z,3.10
2017-07-18T16:21:06.292Z,3.20
2017-07-18T16:23:33.866Z,3.23
2017-07-18T16:26:01.422Z,2.97
2017-07-18T16:28:28.975Z,2.70
2017-07-18T16:30:56.557Z,3.77
2017-07-18T16:33:24.962Z,2.57
2017-07-18T16:35:53.332Z,3.03
2017-07-18T16:38:21.641Z,2.90
2017-07-18T16:40:49.181Z,3.60
2017-07-18T16:43:16.863Z,3.00
2017-07-18T16:45:44.423Z,3.50
2017-07-18T16:48:11.971Z,3.47
2017-07-18T16:50:39.562Z,2.80
2017-07-18T16:53:07.123Z,2.90
2017-07-18T16:55:34.710Z,3.20
2017-07-18T16:58:03.033Z,3.50
2017-07-18T17:00:30.594Z,3.50
2017-07-18T17:02:58.200Z,3.20
2017-07-18T17:05:26.522Z,3.27
2017-07-18T17:07:54.116Z,3.60
2017-07-18T17:10:21.719Z,3.43
2017-07-18T17:12:49.304Z,3.10
2017-07-18T17:15:16.903Z,3.03
2017-07-18T17:17:44.461Z,3.50
2017-07-18T17:20:12.043Z,3.90
2017-07-18T17:22:40.348Z,3.30
2017-07-18T17:25:08.006Z,3.67
2017-07-18T17:27:35.606Z,3.37
2017-07-18T17:30:03.133Z,3.60
2017-07-18T17:32:30.783Z,3.70
2017-07-18T17:34:58.355Z,3.40
2017-07-18T17:37:25.910Z,3.40
2017-07-18T17:39:53.459Z,3.37
2017-07-18T17:42:21.192Z,3.67
2017-07-18T17:44:48.806Z,3.40
2017-07-18T17:47:16.354Z,3.20
2017-07-18T17:49:43.903Z,3.30
2017-07-18T17:52:11.482Z,3.73
2017-07-18T17:54:39.036Z,3.50
2017-07-18T17:57:06.784Z,3.57
2017-07-18T17:59:34.326Z,3.60
2017-07-18T18:02:01.875Z,3.90
2017-07-18T18:04:29.482Z,3.70
2017-07-18T18:06:57.018Z,3.70
2017-07-18T18:09:24.579Z,4.00
2017-07-18T18:11:52.162Z,3.57
2017-07-18T18:14:19.714Z,4.00
2017-07-18T18:16:47.294Z,3.40
2017-07-18T18:19:15.648Z,4.23
2017-07-18T18:21:43.237Z,3.90
2017-07-18T18:24:11.673Z,3.50
2017-07-18T18:26:39.214Z,3.47
2017-07-18T18:29:06.762Z,3.70
2017-07-18T18:31:34.363Z,3.10
2017-07-18T18:34:01.927Z,3.80
2017-07-18T18:36:29.504Z,4.53
2017-07-18T18:38:57.842Z,3.90
2017-07-18T18:41:25.387Z,3.77
2017-07-18T18:43:52.974Z,3.83
2017-07-18T18:46:20.521Z,4.10
2017-07-18T18:48:48.089Z,3.77
2017-07-18T18:51:15.657Z,4.37
2017-07-18T18:53:43.305Z,4.03
2017-07-18T18:56:10.902Z,4.80
2017-07-18T18:58:39.310Z,3.80
2017-07-18T19:01:06.907Z,3.90
2017-07-18T19:03:34.623Z,4.10
2017-07-18T19:06:02.163Z,3.70
2017-07-18T19:08:29.777Z,4.03
2017-07-18T19:10:57.511Z,3.87
2017-07-18T19:13:25.106Z,3.70
2017-07-18T19:15:52.780Z,3.83
2017-07-18T19:18:20.400Z,3.87
2017-07-18T19:20:47.977Z,4.77
2017-07-18T19:23:15.525Z,3.90
2017-07-18T19:25:43.074Z,4.73
2017-07-18T19:28:10.672Z,4.50
2017-07-18T19:30:38.262Z,4.13
2017-07-18T19:33:05.826Z,4.23
2017-07-18T19:35:33.376Z,5.00
2017-07-18T19:38:01.003Z,4.73
2017-07-18T19:40:28.589Z,4.00
2017-07-18T19:42:56.368Z,4.50
2017-07-18T19:45:23.921Z,3.70
2017-07-18T19:47:51.478Z,4.60
2017-07-18T19:50:19.069Z,4.50
2017-07-18T19:52:46.646Z,5.33
2017-07-18T19:55:14.234Z,5.30
2017-07-18T19:57:42.594Z,4.63
2017-07-18T20:00:10.332Z,6.07
2017-07-18T20:02:37.877Z,5.70
2017-07-18T20:05:05.465Z,6.17
2017-07-18T20:07:33.186Z,6.27
2017-07-18T20:10:00.783Z,6.13
2017-07-18T20:12:28.335Z,5.83
2017-07-18T20:14:55.890Z,6.00
2017-07-18T20:17:23.494Z,6.00
2017-07-18T20:19:51.167Z,6.23
2017-07-18T20:22:18.719Z,6.40
2017-07-18T20:24:46.303Z,5.17
2017-07-18T20:27:13.862Z,5.27
2017-07-18T20:29:41.471Z,6.20
2017-07-18T20:32:09.169Z,4.80
2017-07-18T20:34:36.765Z,5.30
2017-07-18T20:37:04.329Z,5.47
2017-07-18T20:39:32.054Z,4.60
2017-07-18T20:41:59.656Z,4.93
2017-07-18T20:44:27.219Z,4.73
2017-07-18T20:46:55.641Z,4.70
2017-07-18T20:49:23.243Z,4.83
2017-07-18T20:51:50.785Z,5.40
2017-07-18T20:54:18.401Z,5.57
2017-07-18T20:56:46.069Z,4.60
2017-07-18T20:59:13.656Z,5.00
2017-07-18T21:01:41.244Z,4.70
2017-07-18T21:04:08.794Z,4.87
2017-07-18T21:06:36.349Z,4.30
2017-07-18T21:09:03.928Z,4.93
2017-07-18T21:11:32.501Z,4.20
2017-07-18T21:14:00.244Z,4.97
2017-07-18T21:16:27.795Z,3.70
2017-07-18T21:18:55.354Z,4.73
2017-07-18T21:21:22.951Z,4.10
2017-07-18T21:23:51.261Z,3.60
2017-07-18T21:26:18.822Z,3.70
2017-07-18T21:28:46.406Z,4.40
2017-07-18T21:31:14.092Z,4.27
2017-07-18T21:33:41.683Z,4.40
2017-07-18T21:36:09.991Z,4.40
2017-07-18T21:38:37.572Z,4.03
2017-07-18T21:41:05.115Z,4.40
2017-07-18T21:43:32.716Z,4.50
2017-07-18T21:46:00.238Z,4.30
2017-07-18T21:48:27.821Z,4.70
2017-07-18T21:50:55.367Z,4.07
2017-07-18T21:53:23.085Z,4.70
2017-07-18T21:55:50.629Z,4.30
2017-07-18T21:58:18.385Z,4.07
2017-07-18T22:00:46.727Z,4.60
2017-07-18T22:03:14.273Z,4.50
2017-07-18T22:05:41.902Z,4.53
2017-07-18T22:08:09.487Z,4.40
2017-07-18T22:10:37.035Z,4.73
2017-07-18T22:13:04.587Z,4.90
2017-07-18T22:15:32.199Z,5.53
2017-07-18T22:17:59.750Z,6.13
2017-07-18T22:20:27.306Z,5.10
2017-07-18T22:22:54.876Z,5.17
2017-07-18T22:25:23.189Z,5.67
2017-07-18T22:27:50.763Z,4.70
2017-07-18T22:30:18.310Z,5.40
2017-07-18T22:32:45.845Z,4.70
2017-07-18T22:35:13.421Z,4.77
2017-07-18T22:37:40.974Z,4.60
2017-07-18T22:40:08.553Z,5.10
2017-07-18T22:42:36.097Z,4.60
2017-07-18T22:45:03.653Z,4.73
2017-07-18T22:47:31.234Z,4.60
2017-07-18T22:49:58.771Z,4.50
2017-07-18T22:52:26.315Z,5.30
2017-07-18T22:54:53.889Z,4.10
2017-07-18T22:57:21.445Z,4.03
2017-07-18T22:59:49.026Z,4.53
2017-07-18T23:02:16.563Z,4.20
2017-07-18T23:04:44.293Z,4.60
2017-07-18T23:07:12.637Z,4.43
2017-07-18T23:09:40.173Z,4.50
2017-07-18T23:12:07.764Z,4.40
2017-07-18T23:14:35.362Z,4.27
2017-07-18T23:17:02.925Z,4.30
2017-07-18T23:19:30.512Z,3.83
2017-07-18T23:21:58.169Z,3.73
2017-07-18T23:24:25.721Z,4.07
2017-07-18T23:26:53.319Z,3.70
2017-07-18T23:29:20.857Z,3.60
2017-07-18T23:31:48.403Z,3.80
2017-07-18T23:34:15.977Z,3.73
2017-07-18T23:36:43.547Z,3.53
2017-07-18T23:39:11.143Z,3.33
2017-07-18T23:41:38.775Z,3.30
2017-07-18T23:44:07.097Z,3.63
2017-07-18T23:46:34.677Z,3.00
2017-07-18T23:49:02.244Z,3.23
2017-07-18T23:51:29.837Z,2.43
2017-07-18T23:53:58.148Z,2.73
2017-07-18T23:56:25.715Z,3.17
2017-07-18T23:58:53.294Z,3.10
